Time;durP1;ratioP1;P1;durP2;ratioP2;P2;SDS_P1;SDS_P2;PMS_P1;PMS_P2;Temp;Humidity;BMP_temperature;BMP_pressure;BME280_temperature;BME280_humidity;BME280_pressure;Samples;Min_cycle;Max_cycle;Signal;HPM_P1;HPM_P2
2023/08/29 00:01:00;;;;;;;9.00;3.85;;;;;;;11.50;100.00;96040.06;5063871;28;20033;-66
2023/08/29 00:03:28;;;;;;;4.97;3.75;;;;;;;11.52;100.00;96034.19;5059158;28;20064;-66
2023/08/29 00:06:03;;;;;;;6.30;3.50;;;;;;;11.54;100.00;96040.88;5063462;28;20075;-66
2023/08/29 00:08:29;;;;;;;3.95;3.25;;;;;;;11.43;100.00;96040.88;5061088;28;20044;-66
2023/08/29 00:10:58;;;;;;;5.22;3.50;;;;;;;11.40;100.00;96044.38;5064057;28;20067;-65
2023/08/29 00:13:25;;;;;;;3.90;3.50;;;;;;;11.40;100.00;96044.38;5059119;28;20051;-66
2023/08/29 00:15:51;;;;;;;5.20;3.08;;;;;;;11.50;100.00;96055.75;5064767;28;20123;-66
2023/08/29 00:18:16;;;;;;;4.55;3.40;;;;;;;11.52;100.00;96050.66;5059877;28;20056;-66
2023/08/29 00:20:42;;;;;;;4.05;3.00;;;;;;;11.53;100.00;96050.28;5063549;28;20036;-66
2023/08/29 00:23:10;;;;;;;3.72;3.10;;;;;;;11.60;100.00;96050.28;5058291;28;20043;-67
2023/08/29 00:25:36;;;;;;;4.53;3.42;;;;;;;11.66;100.00;96048.72;5063808;28;20439;-65
2023/08/29 00:28:01;;;;;;;3.90;3.50;;;;;;;11.62;100.00;96049.91;5062346;28;20044;-66
2023/08/29 00:30:26;;;;;;;4.93;3.60;;;;;;;11.32;100.00;96047.47;5059391;28;20135;-66
2023/08/29 00:32:52;;;;;;;5.38;4.10;;;;;;;11.22;100.00;96043.53;5063970;28;20045;-66
2023/08/29 00:35:17;;;;;;;4.78;4.10;;;;;;;11.25;100.00;96043.56;5057993;28;20147;-66
2023/08/29 00:37:43;;;;;;;4.75;4.20;;;;;;;11.20;100.00;96052.16;5063273;28;20047;-66
2023/08/29 00:40:10;;;;;;;6.68;4.88;;;;;;;11.09;100.00;96046.63;5057971;28;20040;-66
2023/08/29 00:42:35;;;;;;;8.07;4.95;;;;;;;11.01;100.00;96050.50;5064155;28;20044;-66
2023/08/29 00:45:01;;;;;;;6.45;4.95;;;;;;;11.00;100.00;96046.19;5062577;28;20040;-67
2023/08/29 00:47:27;;;;;;;6.22;5.13;;;;;;;11.07;100.00;96048.97;5057060;28;20063;-66
2023/08/29 00:49:53;;;;;;;5.82;4.78;;;;;;;11.20;100.00;96057.63;5062819;28;20063;-66
2023/08/29 00:52:19;;;;;;;5.85;4.70;;;;;;;11.33;100.00;96055.31;5053728;28;20047;-66
2023/08/29 00:54:44;;;;;;;8.13;4.65;;;;;;;11.47;100.00;96049.09;5063251;28;20040;-66
2023/08/29 00:57:10;;;;;;;4.45;4.05;;;;;;;11.47;100.00;96046.34;5057968;28;20032;-67
2023/08/29 00:59:35;;;;;;;5.10;4.22;;;;;;;11.42;100.00;96044.75;5061864;28;20169;-67
2023/08/29 01:02:00;;;;;;;4.82;4.32;;;;;;;11.52;100.00;96042.44;5063174;28;20036;-66
2023/08/29 01:04:26;;;;;;;5.93;4.75;;;;;;;11.55;100.00;96036.19;5057885;28;20127;-67
2023/08/29 01:06:54;;;;;;;5.65;4.50;;;;;;;11.60;100.00;96036.56;5063565;28;20155;-67
2023/08/29 01:09:20;;;;;;;7.80;4.85;;;;;;;11.66;100.00;96028.75;5058480;28;20045;-66
2023/08/29 01:11:54;;;;;;;5.20;4.53;;;;;;;11.67;100.00;96031.09;5062074;28;20047;-68
2023/08/29 01:14:49;;;;;;;4.97;4.32;;;;;;;11.68;100.00;96031.88;5058103;28;20051;-66
2023/08/29 01:17:36;;;;;;;5.00;4.18;;;;;;;11.71;100.00;96025.63;5057283;28;20131;-65
2023/08/29 01:20:05;;;;;;;6.00;4.07;;;;;;;11.55;100.00;96031.47;5061803;28;20139;-67
2023/08/29 01:23:01;;;;;;;6.20;4.47;;;;;;;11.45;100.00;96022.06;5061713;28;20041;-65
2023/08/29 01:25:34;;;;;;;4.13;3.72;;;;;;;11.52;100.00;96026.75;5057925;28;20041;-65
2023/08/29 01:28:01;;;;;;;6.20;4.30;;;;;;;11.59;100.00;96024.03;5068109;28;20044;-66
2023/08/29 01:30:27;;;;;;;6.43;4.15;;;;;;;11.59;100.00;96021.28;5076568;28;20041;-66
2023/08/29 01:32:54;;;;;;;5.18;3.40;;;;;;;11.55;100.00;96016.97;5074505;28;20370;-67
2023/08/29 01:35:21;;;;;;;4.55;3.90;;;;;;;11.58;100.00;96011.50;5058325;28;20059;-66
2023/08/29 01:37:47;;;;;;;4.70;3.30;;;;;;;11.62;100.00;96014.25;5062719;28;20041;-66
2023/08/29 01:40:12;;;;;;;4.28;3.47;;;;;;;11.60;100.00;96008.38;5055207;28;20037;-66
2023/08/29 01:42:38;;;;;;;4.97;3.75;;;;;;;11.64;100.00;96015.41;5061718;28;20032;-66
2023/08/29 01:45:04;;;;;;;3.78;3.35;;;;;;;11.63;100.00;96013.88;5059804;28;20044;-65
2023/08/29 01:47:30;;;;;;;4.57;3.25;;;;;;;11.62;100.00;96015.03;5061906;28;20129;-66
2023/08/29 01:49:57;;;;;;;4.72;3.50;;;;;;;11.60;100.00;96014.63;5063372;28;20090;-66
2023/08/29 01:52:22;;;;;;;4.28;3.42;;;;;;;11.65;100.00;96025.22;5058875;28;20498;-66
2023/08/29 01:54:48;;;;;;;3.67;3.00;;;;;;;11.71;100.00;96013.88;5063663;28;20381;-66
2023/08/29 01:57:14;;;;;;;3.35;3.05;;;;;;;11.60;100.00;96022.09;5058376;28;20105;-66
2023/08/29 01:59:41;;;;;;;3.92;2.78;;;;;;;11.55;100.00;96022.47;5067671;28;20040;-66
2023/08/29 02:02:07;;;;;;;3.38;2.90;;;;;;;11.60;100.00;96022.09;5071225;28;20036;-66
2023/08/29 02:04:32;;;;;;;4.93;3.60;;;;;;;11.63;100.00;96018.53;5076185;28;20036;-66
2023/08/29 02:06:59;;;;;;;5.10;3.33;;;;;;;11.62;100.00;96014.25;5064952;28;20131;-66
2023/08/29 02:09:24;;;;;;;4.22;3.55;;;;;;;11.60;100.00;96017.38;5056514;28;20534;-67
2023/08/29 02:11:50;;;;;;;4.22;3.13;;;;;;;11.54;100.00;96013.47;5064941;28;20124;-67
2023/08/29 02:14:15;;;;;;;3.53;2.83;;;;;;;11.50;100.00;96009.91;5056991;28;20033;-65
2023/08/29 02:16:41;;;;;;;4.20;3.45;;;;;;;11.52;100.00;96015.00;5062173;28;20068;-65
2023/08/29 02:19:06;;;;;;;4.07;3.25;;;;;;;11.60;100.00;96016.59;5057310;28;20481;-65
2023/08/29 02:21:31;;;;;;;4.40;3.55;;;;;;;11.66;100.00;96015.81;5058187;28;20064;-66
2023/08/29 02:23:57;;;;;;;4.90;3.28;;;;;;;11.66;100.00;96010.31;5062498;28;20154;-66
2023/08/29 02:26:23;;;;;;;5.05;3.45;;;;;;;11.67;100.00;96006.41;5055372;28;20451;-66
2023/08/29 02:28:53;;;;;;;4.20;3.33;;;;;;;11.66;100.00;96009.53;5060969;28;20033;-65
2023/08/29 02:31:18;;;;;;;3.47;3.17;;;;;;;11.70;100.00;96012.28;5054160;28;20135;-66
2023/08/29 02:33:43;;;;;;;4.80;3.33;;;;;;;11.79;100.00;96005.25;5061236;28;20127;-66
2023/08/29 02:36:09;;;;;;;4.25;3.60;;;;;;;11.77;100.00;96002.09;5054462;28;20377;-67
2023/08/29 02:38:35;;;;;;;4.95;3.75;;;;;;;11.73;100.00;96006.81;5061834;28;20108;-67
2023/08/29 02:41:00;;;;;;;6.03;4.05;;;;;;;11.63;100.00;96005.63;5061263;28;20079;-66
2023/08/29 02:43:29;;;;;;;4.85;4.10;;;;;;;11.71;100.00;96002.91;5056122;28;20045;-67
2023/08/29 02:45:54;;;;;;;5.50;4.80;;;;;;;11.73;100.00;96000.53;5061535;28;20043;-67
2023/08/29 02:48:20;;;;;;;8.18;4.93;;;;;;;11.72;100.00;95986.06;5054823;28;20045;-66
2023/08/29 02:50:48;;;;;;;6.40;5.40;;;;;;;11.72;100.00;95994.28;5059880;28;20040;-67
2023/08/29 02:53:19;;;;;;;6.27;5.63;;;;;;;11.79;100.00;95993.47;5056785;28;20147;-67
2023/08/29 02:55:45;;;;;;;7.63;6.43;;;;;;;11.83;100.00;95995.06;5062586;28;20230;-66
2023/08/29 02:58:10;;;;;;;9.05;6.45;;;;;;;11.77;100.00;95988.38;5056753;28;20043;-67
2023/08/29 03:00:36;;;;;;;7.05;6.32;;;;;;;11.69;100.00;95992.31;5061747;28;20040;-67
2023/08/29 03:03:04;;;;;;;8.60;6.70;;;;;;;11.52;100.00;95998.56;5060645;28;20048;-67
2023/08/29 03:05:30;;;;;;;7.05;6.28;;;;;;;11.60;100.00;95995.44;5061189;28;20300;-66
2023/08/29 03:07:57;;;;;;;8.43;7.20;;;;;;;11.65;100.00;96008.75;5062226;28;20127;-66
2023/08/29 03:10:22;;;;;;;9.35;6.13;;;;;;;11.68;100.00;95990.72;5058756;28;20746;-66
2023/08/29 03:12:50;;;;;;;9.30;7.45;;;;;;;11.66;100.00;95996.59;5065992;28;20125;-66
2023/08/29 03:15:15;;;;;;;8.82;7.68;;;;;;;11.62;100.00;96000.53;5059290;28;20137;-67
2023/08/29 03:17:43;;;;;;;9.77;8.23;;;;;;;11.67;100.00;95991.91;5065230;28;20062;-66
2023/08/29 03:20:08;;;;;;;8.77;7.15;;;;;;;11.64;100.00;96000.91;5060562;28;20033;-66
2023/08/29 03:22:34;;;;;;;10.43;7.82;;;;;;;11.54;100.00;95996.19;5064932;28;20036;-67
2023/08/29 03:24:59;;;;;;;8.75;7.85;;;;;;;11.61;100.00;95999.75;5065342;28;20392;-67
2023/08/29 03:27:25;;;;;;;8.30;7.38;;;;;;;11.54;100.00;95999.75;5060211;28;20041;-68
2023/08/29 03:29:51;;;;;;;9.88;7.57;;;;;;;11.57;100.00;95998.16;5064496;28;20110;-67
2023/08/29 03:32:17;;;;;;;8.85;7.95;;;;;;;11.56;100.00;95997.41;5059281;28;20045;-67
2023/08/29 03:34:42;;;;;;;12.10;8.38;;;;;;;11.64;100.00;95987.22;5064585;28;20040;-67
2023/08/29 03:37:08;;;;;;;9.77;8.75;;;;;;;11.66;100.00;95993.09;5059910;28;20094;-67
2023/08/29 03:39:33;;;;;;;9.25;7.95;;;;;;;11.63;100.00;95994.66;5064443;28;20083;-67
2023/08/29 03:41:58;;;;;;;9.82;8.52;;;;;;;11.59;100.00;95985.63;5064646;28;20042;-67
2023/08/29 03:44:24;;;;;;;10.13;9.07;;;;;;;11.64;100.00;95989.94;5060251;28;20093;-67
2023/08/29 03:46:49;;;;;;;9.80;8.80;;;;;;;11.65;100.00;95988.78;5065197;28;20048;-67
2023/08/29 03:49:15;;;;;;;9.55;8.52;;;;;;;11.66;100.00;95993.84;5057866;28;20454;-66
2023/08/29 03:51:40;;;;;;;10.35;9.25;;;;;;;11.67;100.00;95995.44;5063972;28;20051;-67
2023/08/29 03:54:05;;;;;;;9.77;8.77;;;;;;;11.59;100.00;95993.84;5058644;28;20044;-65
2023/08/29 03:56:33;;;;;;;10.13;8.73;;;;;;;11.62;100.00;95989.56;5063146;28;20037;-69
2023/08/29 03:59:01;;;;;;;9.43;8.25;;;;;;;11.62;100.00;95989.56;5063950;28;20066;-66
2023/08/29 04:01:27;;;;;;;9.65;8.65;;;;;;;11.65;100.00;95997.78;5059499;28;20128;-66
2023/08/29 04:03:52;;;;;;;12.80;9.50;;;;;;;11.70;100.00;95993.88;5062257;28;20126;-66
2023/08/29 04:06:19;;;;;;;10.70;9.07;;;;;;;11.74;100.00;96002.91;5058556;28;20052;-66
2023/08/29 04:08:44;;;;;;;12.77;8.63;;;;;;;11.73;100.00;95990.34;5064794;28;20374;-65
2023/08/29 04:11:10;;;;;;;11.73;9.30;;;;;;;11.68;100.00;95998.97;5060174;28;20106;-66
2023/08/29 04:13:36;;;;;;;9.93;8.85;;;;;;;11.72;100.00;96002.50;5063944;28;20430;-67
2023/08/29 04:16:04;;;;;;;10.25;9.15;;;;;;;11.73;100.00;95992.31;5064428;28;20071;-65
2023/08/29 04:18:31;;;;;;;9.32;8.45;;;;;;;11.70;100.00;95996.59;5066030;28;20101;-66
2023/08/29 04:20:56;;;;;;;10.35;9.23;;;;;;;11.76;100.00;96005.25;5067589;28;20053;-68
2023/08/29 04:23:22;;;;;;;11.65;9.75;;;;;;;11.75;100.00;96000.94;5060273;28;20611;-67
2023/08/29 04:25:47;;;;;;;12.25;10.13;;;;;;;11.79;100.00;96001.72;5064655;28;20489;-66
2023/08/29 04:28:19;;;;;;;16.05;9.95;;;;;;;11.77;100.00;95995.84;5060055;28;20655;-67
2023/08/29 04:30:45;;;;;;;11.65;9.75;;;;;;;11.72;100.00;96005.25;5067881;28;20049;-67
2023/08/29 04:33:10;;;;;;;12.15;9.30;;;;;;;11.63;100.00;96000.16;5071999;28;20078;-69
2023/08/29 04:35:36;;;;;;;13.38;10.20;;;;;;;11.69;100.00;96000.53;5074017;28;20040;-69
2023/08/29 04:38:01;;;;;;;11.57;9.90;;;;;;;11.71;100.00;96000.94;5074939;28;20047;-64
2023/08/29 04:40:27;;;;;;;11.55;10.23;;;;;;;11.59;100.00;95999.34;5080436;28;20037;-66
2023/08/29 04:42:53;;;;;;;14.27;10.13;;;;;;;11.60;100.00;96008.38;5065967;28;20062;-65
2023/08/29 04:45:19;;;;;;;11.75;10.48;;;;;;;11.63;100.00;96007.56;5058540;28;20040;-66
2023/08/29 04:47:45;;;;;;;13.02;10.07;;;;;;;11.70;100.00;96004.84;5063904;28;20108;-67
2023/08/29 04:50:10;;;;;;;11.27;10.00;;;;;;;11.70;100.00;96009.53;5060065;28;20485;-67
2023/08/29 04:52:36;;;;;;;11.95;9.95;;;;;;;11.65;100.00;96003.28;5063455;28;20211;-67
2023/08/29 04:55:02;;;;;;;13.32;10.73;;;;;;;11.62;100.00;96009.53;5058821;28;20032;-68
2023/08/29 04:57:27;;;;;;;10.80;9.70;;;;;;;11.61;100.00;96005.25;5059445;28;20049;-66
2023/08/29 04:59:53;;;;;;;11.02;9.65;;;;;;;11.66;100.00;96015.03;5065027;28;20040;-66
2023/08/29 05:02:18;;;;;;;11.50;10.30;;;;;;;11.68;100.00;96009.94;5057680;28;20029;-66
2023/08/29 05:04:45;;;;;;;15.77;10.77;;;;;;;11.70;100.00;96012.28;5062799;28;20036;-66
2023/08/29 05:07:11;;;;;;;12.23;10.55;;;;;;;11.73;100.00;96012.28;5057812;28;20040;-66
2023/08/29 05:09:36;;;;;;;14.00;11.20;;;;;;;11.77;100.00;96015.03;5063506;28;20079;-66
2023/08/29 05:12:02;;;;;;;12.63;10.90;;;;;;;11.74;100.00;96018.56;5062517;28;20040;-66
2023/08/29 05:14:28;;;;;;;13.98;10.38;;;;;;;11.78;100.00;96022.88;5059782;28;20098;-66
2023/08/29 05:16:53;;;;;;;11.50;10.30;;;;;;;11.79;100.00;96018.97;5063007;28;20047;-67
2023/08/29 05:19:19;;;;;;;14.00;10.55;;;;;;;11.85;100.00;96013.88;5057911;28;20083;-66
2023/08/29 05:21:44;;;;;;;12.27;10.27;;;;;;;11.88;100.00;96018.56;5061433;28;20036;-66
2023/08/29 05:24:10;;;;;;;14.48;10.57;;;;;;;11.95;100.00;96015.06;5058052;28;20131;-66
2023/08/29 05:26:35;;;;;;;13.45;10.43;;;;;;;11.79;100.00;96012.69;5063491;28;20132;-66
2023/08/29 05:29:01;;;;;;;12.00;10.25;;;;;;;11.84;100.00;96010.34;5062450;28;20131;-66
2023/08/29 05:31:26;;;;;;;12.63;10.43;;;;;;;11.73;100.00;96023.25;5057050;28;20059;-65
2023/08/29 05:33:51;;;;;;;11.90;10.60;;;;;;;11.57;100.00;96023.63;5062801;28;20048;-65
2023/08/29 05:36:17;;;;;;;13.52;10.45;;;;;;;11.70;100.00;96015.81;5055762;28;20078;-66
2023/08/29 05:38:42;;;;;;;11.20;9.38;;;;;;;11.81;100.00;96018.56;5062513;28;20048;-66
2023/08/29 05:41:08;;;;;;;12.43;9.98;;;;;;;11.92;100.00;96018.59;5056211;28;20048;-67
2023/08/29 05:43:33;;;;;;;11.75;10.32;;;;;;;11.96;100.00;96024.88;5062532;28;20114;-66
2023/08/29 05:45:59;;;;;;;12.15;10.32;;;;;;;11.83;100.00;96019.75;5061865;28;20493;-66
2023/08/29 05:48:24;;;;;;;10.88;8.90;;;;;;;11.82;100.00;96037.38;5057713;28;20087;-66
2023/08/29 05:50:50;;;;;;;10.10;9.02;;;;;;;11.82;100.00;96031.88;5062282;28;20524;-66
2023/08/29 05:53:19;;;;;;;10.48;8.73;;;;;;;11.98;100.00;96025.28;5056596;28;20132;-66
2023/08/29 05:55:45;;;;;;;9.05;7.95;;;;;;;12.08;100.00;96024.47;5062070;28;20080;-66
2023/08/29 05:58:11;;;;;;;9.07;8.07;;;;;;;12.11;100.00;96029.19;5056186;28;20047;-66
2023/08/29 06:00:37;;;;;;;9.23;8.20;;;;;;;12.08;100.00;96029.19;5061967;28;20044;-66
2023/08/29 06:03:04;;;;;;;8.95;7.25;;;;;;;12.14;100.00;96038.59;5059616;28;20032;-65
2023/08/29 06:05:32;;;;;;;10.63;8.57;;;;;;;12.28;100.00;96040.53;5058960;28;20101;-65
2023/08/29 06:08:01;;;;;;;10.07;8.35;;;;;;;12.31;100.00;96037.78;5062058;28;20120;-65
2023/08/29 06:10:28;;;;;;;9.83;7.90;;;;;;;12.25;100.00;96047.63;5056353;28;20127;-66
2023/08/29 06:12:53;;;;;;;12.45;9.00;;;;;;;12.06;100.00;96046.03;5061729;28;20286;-65
2023/08/29 06:15:19;;;;;;;10.75;9.45;;;;;;;11.74;100.00;96038.56;5062166;28;20043;-66
2023/08/29 06:17:44;;;;;;;10.80;9.68;;;;;;;11.96;100.00;96050.38;5069746;28;20470;-66
2023/08/29 06:20:13;;;;;;;11.73;9.93;;;;;;;12.09;100.00;96044.50;5056224;28;20060;-66
2023/08/29 06:22:38;;;;;;;11.20;9.68;;;;;;;12.29;100.00;96048.38;5062864;28;20183;-66
2023/08/29 06:25:04;;;;;;;9.07;8.15;;;;;;;12.43;100.00;96045.63;5073726;28;20063;-65
2023/08/29 06:27:30;;;;;;;10.45;9.20;;;;;;;12.53;100.00;96049.56;5072614;28;20036;-66
2023/08/29 06:29:55;;;;;;;11.88;7.70;;;;;;;12.40;100.00;96053.88;5064764;28;20501;-66
2023/08/29 06:32:21;;;;;;;8.82;7.20;;;;;;;12.65;100.00;96045.59;5055021;28;20054;-66
2023/08/29 06:34:46;;;;;;;7.75;6.60;;;;;;;12.76;100.00;96051.81;5063557;28;20044;-67
2023/08/29 06:37:12;;;;;;;7.78;6.13;;;;;;;12.89;100.00;96052.22;5056675;28;20124;-67
2023/08/29 06:39:37;;;;;;;7.10;6.13;;;;;;;12.99;100.00;96050.59;5062082;28;20135;-68
2023/08/29 06:42:03;;;;;;;7.07;5.63;;;;;;;12.91;100.00;96052.59;5060883;28;20127;-66
2023/08/29 06:44:28;;;;;;;6.72;5.30;;;;;;;12.97;100.00;96061.97;5064336;28;20481;-66
2023/08/29 06:46:53;;;;;;;5.35;3.90;;;;;;;13.06;100.00;96061.56;5066015;28;20039;-67
2023/08/29 06:49:19;;;;;;;4.90;4.40;;;;;;;13.11;100.00;96066.66;5060734;28;20493;-67
2023/08/29 06:51:44;;;;;;;4.68;3.80;;;;;;;13.06;100.00;96069.03;5065900;28;20063;-67
2023/08/29 06:54:10;;;;;;;4.72;3.80;;;;;;;12.93;100.00;96065.94;5060735;28;20147;-66
2023/08/29 06:56:35;;;;;;;4.55;3.88;;;;;;;12.84;100.00;96071.84;5065332;28;20064;-66
2023/08/29 06:59:01;;;;;;;6.63;4.47;;;;;;;12.71;100.00;96066.00;5065526;28;20045;-66
2023/08/29 07:01:26;;;;;;;6.47;4.93;;;;;;;12.81;100.00;96070.66;5060966;28;20047;-64
2023/08/29 07:03:52;;;;;;;6.22;4.75;;;;;;;12.56;100.00;96069.94;5065310;28;20040;-65
2023/08/29 07:06:17;;;;;;;6.88;4.40;;;;;;;12.62;100.00;96071.91;5059797;28;20063;-65
2023/08/29 07:08:43;;;;;;;7.05;5.00;;;;;;;12.59;100.00;96078.19;5064859;28;20041;-66
2023/08/29 07:11:09;;;;;;;6.88;4.80;;;;;;;12.75;100.00;96064.03;5059358;28;20076;-66
2023/08/29 07:13:34;;;;;;;7.05;5.15;;;;;;;12.90;100.00;96070.25;5063909;28;20048;-66
2023/08/29 07:15:59;;;;;;;5.28;4.30;;;;;;;12.90;100.00;96078.50;5065110;28;20036;-66
2023/08/29 07:18:25;;;;;;;6.38;5.10;;;;;;;12.91;100.00;96076.53;5060598;28;20481;-67
2023/08/29 07:20:50;;;;;;;8.52;4.32;;;;;;;12.99;100.00;96078.09;5064745;28;20047;-66
2023/08/29 07:23:16;;;;;;;6.40;4.00;;;;;;;12.97;100.00;96078.47;5060389;28;20040;-67
2023/08/29 07:25:46;;;;;;;5.55;4.32;;;;;;;13.18;100.00;96083.13;5064176;28;20032;-67
2023/08/29 07:28:13;;;;;;;4.60;3.78;;;;;;;13.10;100.00;96095.31;5059722;28;20036;-66
2023/08/29 07:30:47;;;;;;;7.38;4.32;;;;;;;13.24;100.00;96093.72;5063832;28;20435;-67
2023/08/29 07:33:14;;;;;;;4.15;3.70;;;;;;;13.34;100.00;96090.97;5060036;28;20044;-66
2023/08/29 07:35:40;;;;;;;4.35;3.42;;;;;;;13.39;100.00;96085.00;5063869;28;20496;-67
2023/08/29 07:38:05;;;;;;;4.78;3.20;;;;;;;13.51;100.00;96092.03;5057470;28;20049;-67
2023/08/29 07:40:32;;;;;;;3.50;3.20;;;;;;;13.23;100.00;96086.63;5064593;28;20043;-67
2023/08/29 07:42:58;;;;;;;4.60;3.17;;;;;;;13.35;100.00;96091.72;5063440;28;20036;-67
2023/08/29 07:45:23;;;;;;;4.15;3.25;;;;;;;13.28;100.00;96092.50;5058164;28;20428;-67
2023/08/29 07:47:48;;;;;;;5.38;3.75;;;;;;;13.29;100.00;96090.53;5064543;28;20037;-67
2023/08/29 07:50:14;;;;;;;3.85;3.15;;;;;;;13.26;100.00;96105.09;5059237;28;20048;-66
2023/08/29 07:52:39;;;;;;;4.60;3.50;;;;;;;13.17;100.00;96095.31;5060906;28;20040;-66
2023/08/29 07:55:05;;;;;;;5.95;4.50;;;;;;;13.12;100.00;96089.44;5059002;28;20051;-67
2023/08/29 07:57:31;;;;;;;5.88;4.88;;;;;;;12.89;100.00;96096.19;5063800;28;20355;-66
2023/08/29 07:59:56;;;;;;;5.88;4.85;;;;;;;12.79;100.00;96100.50;5063294;28;20077;-67
2023/08/29 08:02:22;;;;;;;8.45;5.65;;;;;;;12.65;100.00;96100.53;5059260;28;20686;-67
2023/08/29 08:04:47;;;;;;;6.32;4.63;;;;;;;12.71;100.00;96096.22;5064764;28;20107;-67
2023/08/29 08:07:12;;;;;;;9.70;5.15;;;;;;;12.53;100.00;96101.75;5060790;28;20045;-67
2023/08/29 08:09:38;;;;;;;5.90;4.88;;;;;;;12.57;100.00;96097.03;5064112;28;20040;-65
2023/08/29 08:12:03;;;;;;;7.47;5.57;;;;;;;12.54;100.00;96099.78;5061277;28;20046;-66
2023/08/29 08:14:29;;;;;;;9.02;6.43;;;;;;;12.35;100.00;96111.94;5063282;28;20041;-67
2023/08/29 08:16:54;;;;;;;9.13;6.70;;;;;;;12.31;100.00;96113.91;5065005;28;20048;-67
2023/08/29 08:19:20;;;;;;;10.75;6.75;;;;;;;12.41;100.00;96116.66;5051829;28;20036;-67
2023/08/29 08:21:46;;;;;;;7.95;6.75;;;;;;;12.61;100.00;96124.47;5077541;28;20078;-67
2023/08/29 08:24:11;;;;;;;7.53;6.10;;;;;;;12.86;100.00;96115.44;5069240;28;20091;-66
2023/08/29 08:26:36;;;;;;;13.25;7.88;;;;;;;12.88;100.00;96104.81;5076458;28;20056;-65
2023/08/29 08:29:04;;;;;;;10.68;7.47;;;;;;;12.89;100.00;96112.69;5076176;28;20547;-67
2023/08/29 08:31:30;;;;;;;8.02;6.35;;;;;;;12.59;100.00;96124.88;5076940;28;20044;-67
2023/08/29 08:33:56;;;;;;;8.30;6.07;;;;;;;12.60;100.00;96123.72;5064408;28;20036;-68
2023/08/29 08:36:21;;;;;;;8.80;6.60;;;;;;;12.79;100.00;96127.22;5059025;28;20040;-68
2023/08/29 08:38:47;;;;;;;9.70;7.38;;;;;;;12.82;100.00;96121.72;5065718;28;20048;-66
2023/08/29 08:41:14;;;;;;;8.15;6.18;;;;;;;12.82;100.00;96118.97;5060275;28;20048;-66
2023/08/29 08:43:41;;;;;;;9.75;7.25;;;;;;;12.92;100.00;96124.84;5069814;28;20044;-66
2023/08/29 08:46:07;;;;;;;7.00;5.65;;;;;;;12.78;100.00;96131.13;5075164;28;20045;-66
2023/08/29 08:48:33;;;;;;;6.03;5.40;;;;;;;12.92;100.00;96130.31;5077476;28;20109;-68
2023/08/29 08:51:00;;;;;;;9.20;6.07;;;;;;;12.98;100.00;96132.28;5070252;28;20041;-66
2023/08/29 08:53:27;;;;;;;8.15;5.60;;;;;;;13.02;100.00;96132.28;5061457;28;20048;-67
2023/08/29 08:55:53;;;;;;;8.68;6.40;;;;;;;13.18;100.00;96129.88;5063633;28;20145;-67
2023/08/29 08:58:18;;;;;;;7.43;5.70;;;;;;;13.42;100.00;96126.69;5057826;28;20652;-68
2023/08/29 09:00:44;;;;;;;7.47;5.50;;;;;;;13.46;100.00;96121.94;5063607;28;20052;-68
2023/08/29 09:03:11;;;;;;;5.68;4.53;;;;;;;13.52;100.00;96121.13;5057930;28;20111;-67
2023/08/29 09:05:37;;;;;;;6.47;5.18;;;;;;;13.51;100.00;96124.28;5060672;28;20045;-68
2023/08/29 09:08:02;;;;;;;7.88;5.75;;;;;;;13.55;100.00;96122.28;5062504;28;20134;-68
2023/08/29 09:10:32;;;;;;;10.60;6.75;;;;;;;13.50;100.00;96120.72;5060019;28;20076;-67
2023/08/29 09:12:57;;;;;;;7.70;5.97;;;;;;;13.43;100.00;96120.75;5063175;28;20043;-68
2023/08/29 09:15:26;;;;;;;7.60;5.93;;;;;;;13.39;100.00;96118.03;5057801;28;20048;-68
2023/08/29 09:17:53;;;;;;;6.88;5.53;;;;;;;13.57;100.00;96115.19;5063182;28;20032;-68
2023/08/29 09:20:19;;;;;;;8.52;5.95;;;;;;;13.64;100.00;96119.13;5057051;28;20041;-67
2023/08/29 09:22:46;;;;;;;9.93;6.70;;;;;;;13.59;100.00;96117.56;5062731;28;20125;-67
2023/08/29 09:25:12;;;;;;;6.80;5.18;;;;;;;13.68;100.00;96120.66;5058933;28;20133;-67
2023/08/29 09:27:42;;;;;;;7.28;5.43;;;;;;;13.83;100.00;96123.31;5062766;28;20123;-67
2023/08/29 09:30:13;;;;;;;9.13;4.95;;;;;;;13.86;100.00;96128.03;5057765;28;20048;-67
2023/08/29 09:32:50;;;;;;;5.70;4.88;;;;;;;13.70;100.00;96123.81;5062922;28;20072;-68
2023/08/29 09:35:19;;;;;;;5.75;4.88;;;;;;;13.88;100.00;96125.66;5056636;28;20051;-66
2023/08/29 09:37:52;;;;;;;8.45;5.53;;;;;;;13.75;100.00;96134.38;5062109;28;20042;-68
2023/08/29 09:40:19;;;;;;;9.27;5.60;;;;;;;13.81;100.00;96137.50;5057465;28;20047;-68
2023/08/29 09:42:54;;;;;;;7.30;5.63;;;;;;;13.95;100.00;96142.13;5062003;28;20128;-66
2023/08/29 09:45:20;;;;;;;6.95;5.35;;;;;;;13.79;100.00;96147.34;5057175;28;20043;-68
2023/08/29 09:47:45;;;;;;;6.55;5.65;;;;;;;13.81;100.00;96145.78;5063158;28;20069;-68
2023/08/29 09:50:11;;;;;;;7.97;5.75;;;;;;;13.47;100.00;96143.56;5057506;28;20056;-66
2023/08/29 09:52:37;;;;;;;8.90;5.53;;;;;;;13.39;100.00;96142.00;5062557;28;20074;-67
2023/08/29 09:55:06;;;;;;;7.43;6.25;;;;;;;13.44;100.00;96144.34;5060487;28;20584;-66
2023/08/29 09:57:35;;;;;;;6.70;5.53;;;;;;;13.58;100.00;96138.78;5062870;28;20090;-67
2023/08/29 10:00:02;;;;;;;7.18;5.97;;;;;;;13.82;100.00;96146.53;5061947;28;20045;-66
2023/08/29 10:02:30;;;;;;;7.45;5.88;;;;;;;13.81;100.00;96150.47;5059218;28;20036;-69
2023/08/29 10:05:05;;;;;;;6.10;5.38;;;;;;;13.44;100.00;96152.59;5063047;28;20440;-67
2023/08/29 10:07:42;;;;;;;7.15;5.88;;;;;;;13.28;100.00;96150.25;5061319;28;20106;-67
2023/08/29 10:10:09;;;;;;;7.72;5.43;;;;;;;13.56;100.00;96151.38;5057302;28;20432;-68
2023/08/29 10:12:34;;;;;;;7.88;5.35;;;;;;;13.59;100.00;96150.56;5061308;28;20040;-68
2023/08/29 10:15:01;;;;;;;7.22;5.22;;;;;;;13.77;100.00;96164.25;5061265;28;20052;-68
2023/08/29 10:17:26;;;;;;;6.43;4.80;;;;;;;13.93;100.00;96152.75;5057790;28;20040;-68
2023/08/29 10:19:54;;;;;;;4.80;4.10;;;;;;;14.01;100.00;96150.75;5063556;28;20096;-66
2023/08/29 10:22:21;;;;;;;6.10;5.28;;;;;;;14.16;100.00;96149.47;5057550;28;20109;-68
2023/08/29 10:24:49;;;;;;;8.38;5.47;;;;;;;14.12;100.00;96145.97;5062670;28;20103;-68
2023/08/29 10:27:15;;;;;;;6.50;5.40;;;;;;;14.04;100.00;96145.22;5058383;28;20041;-67
2023/08/29 10:29:40;;;;;;;6.13;5.13;;;;;;;14.25;100.00;96144.31;5061627;28;20042;-67
2023/08/29 10:32:07;;;;;;;8.02;5.05;;;;;;;14.12;100.00;96151.47;5058196;28;20101;-67
2023/08/29 10:34:34;;;;;;;5.85;4.53;;;;;;;14.15;100.00;96156.97;5057066;28;20040;-67
2023/08/29 10:37:00;;;;;;;5.57;3.90;;;;;;;14.18;100.00;96151.84;5061482;28;20032;-69
2023/08/29 10:39:27;;;;;;;4.97;4.30;;;;;;;14.21;100.00;96145.53;5057499;28;20040;-67
2023/08/29 10:41:54;;;;;;;5.78;4.63;;;;;;;13.94;100.00;96146.09;5067790;28;20076;-67
2023/08/29 10:44:28;;;;;;;6.03;4.80;;;;;;;14.15;100.00;96150.66;5059397;28;20048;-68
2023/08/29 10:47:12;;;;;;;5.38;4.70;;;;;;;14.01;100.00;96150.75;5062436;28;20098;-69
2023/08/29 10:49:44;;;;;;;7.95;4.65;;;;;;;13.99;100.00;96155.88;5075082;28;20378;-71
2023/08/29 10:52:10;;;;;;;5.28;4.78;;;;;;;14.09;100.00;96153.06;5069992;28;20156;-68
2023/08/29 10:54:36;;;;;;;6.22;4.50;;;;;;;14.32;100.00;96152.50;5062820;28;20061;-69
2023/08/29 10:57:01;;;;;;;5.30;4.20;;;;;;;14.48;100.00;96154.00;5062218;28;20082;-69
2023/08/29 10:59:32;;;;;;;4.68;3.70;;;;;;;14.70;100.00;96146.34;5057495;28;20033;-68
2023/08/29 11:02:23;;;;;;;6.68;4.60;;;;;;;14.42;100.00;96147.31;5061762;28;20036;-68
2023/08/29 11:05:08;;;;;;;6.40;4.40;;;;;;;14.37;100.00;96140.28;5061330;28;20044;-69
2023/08/29 11:07:37;;;;;;;5.05;4.05;;;;;;;14.43;100.00;96146.94;5061014;28;20110;-69
2023/08/29 11:10:22;;;;;;;4.75;3.70;;;;;;;14.28;100.00;96146.25;5066559;28;20044;-68
2023/08/29 11:13:12;;;;;;;4.68;3.33;;;;;;;14.20;100.00;96154.97;5074316;28;20100;-68
2023/08/29 11:15:49;;;;;;;5.47;3.60;;;;;;;13.81;100.00;96148.53;5062575;28;20040;-68
2023/08/29 11:18:21;;;;;;;4.00;3.35;;;;;;;14.02;100.00;96146.81;5057725;28;20131;-69
2023/08/29 11:20:47;;;;;;;3.88;2.92;;;;;;;13.97;100.00;96148.00;5063308;28;20048;-68